Aviation Digital Data Service (ADDS)

Output produced by TAFs form (0643 UTC 23 February 2018)
found at http://www.aviationweather.gov/adds/tafs/
 
KANB 230553Z AUTO 14005KT 10SM BKN049 21/16 A3036 RMK AO2 SLP272 T02110161 10222 20167 402780144 50000
KANB 230531Z 2306/2406 VRB03KT P6SM BKN045 
     TEMPO 2311/2314 5SM BR OVC030 
     FM231700 20009KT P6SM BKN050 
     FM240000 00000KT P6SM SCT100